sensor_id;sensor_type;location;lat;lon;timestamp;pressure;altitude;pressure_sealevel;temperature;humidity
44675;BME280;30388;52.038;-1.478;2023-01-30T00:01:29;65373.17;;;5.83;100.00
44675;BME280;30388;52.038;-1.478;2023-01-30T00:03:57;65446.89;;;7.27;100.00
44675;BME280;30388;52.038;-1.478;2023-01-30T00:06:24;65428.72;;;7.03;100.00
44675;BME280;30388;52.038;-1.478;2023-01-30T00:08:52;65381.12;;;6.65;100.00
44675;BME280;30388;52.038;-1.478;2023-01-30T00:11:19;65364.99;;;6.46;100.00
44675;BME280;30388;52.038;-1.478;2023-01-30T00:13:48;65386.54;;;6.73;100.00
44675;BME280;30388;52.038;-1.478;2023-01-30T00:16:16;65405.74;;;6.74;100.00
44675;BME280;30388;52.038;-1.478;2023-01-30T00:18:44;65334.92;;;6.34;100.00
44675;BME280;30388;52.038;-1.478;2023-01-30T00:21:13;65356.43;;;6.34;100.00
44675;BME280;30388;52.038;-1.478;2023-01-30T00:23:41;65325.33;;;6.21;100.00
44675;BME280;30388;52.038;-1.478;2023-01-30T00:26:09;65346.92;;;6.47;100.00
44675;BME280;30388;52.038;-1.478;2023-01-30T00:28:37;65387.13;;;6.74;100.00
44675;BME280;30388;52.038;-1.478;2023-01-30T00:31:06;65393.38;;;6.81;100.00
44675;BME280;30388;52.038;-1.478;2023-01-30T00:33:36;65397.05;;;6.63;100.00
44675;BME280;30388;52.038;-1.478;2023-01-30T00:36:04;65420.71;;;6.93;100.00
44675;BME280;30388;52.038;-1.478;2023-01-30T00:38:31;65413.67;;;7.06;100.00
44675;BME280;30388;52.038;-1.478;2023-01-30T00:40:59;65425.47;;;6.99;100.00
44675;BME280;30388;52.038;-1.478;2023-01-30T00:43:27;65405.67;;;6.74;100.00
44675;BME280;30388;52.038;-1.478;2023-01-30T00:45:54;65441.35;;;7.19;100.00
44675;BME280;30388;52.038;-1.478;2023-01-30T00:48:21;65498.99;;;7.70;100.00
44675;BME280;30388;52.038;-1.478;2023-01-30T00:50:48;65486.11;;;7.53;100.00
44675;BME280;30388;52.038;-1.478;2023-01-30T00:53:17;65469.61;;;7.54;100.00
44675;BME280;30388;52.038;-1.478;2023-01-30T00:55:44;65488.35;;;7.78;100.00
44675;BME280;30388;52.038;-1.478;2023-01-30T00:58:12;65479.73;;;7.19;100.00
44675;BME280;30388;52.038;-1.478;2023-01-30T01:00:39;65497.56;;;7.42;100.00
44675;BME280;30388;52.038;-1.478;2023-01-30T01:03:08;65507.86;;;7.55;100.00
44675;BME280;30388;52.038;-1.478;2023-01-30T01:05:36;65440.13;;;7.18;100.00
44675;BME280;30388;52.038;-1.478;2023-01-30T01:08:03;65415.36;;;6.86;100.00
44675;BME280;30388;52.038;-1.478;2023-01-30T01:10:31;65421.75;;;7.16;100.00
44675;BME280;30388;52.038;-1.478;2023-01-30T01:12:59;65413.95;;;6.84;100.00
44675;BME280;30388;52.038;-1.478;2023-01-30T01:15:26;65396.78;;;6.63;100.00
44675;BME280;30388;52.038;-1.478;2023-01-30T01:17:54;65396.64;;;6.63;100.00
44675;BME280;30388;52.038;-1.478;2023-01-30T01:20:22;65432.14;;;7.07;100.00
44675;BME280;30388;52.038;-1.478;2023-01-30T01:22:52;65410.20;;;6.80;100.00
44675;BME280;30388;52.038;-1.478;2023-01-30T01:25:21;65362.17;;;6.19;100.00
44675;BME280;30388;52.038;-1.478;2023-01-30T01:27:49;65316.40;;;6.09;100.00
44675;BME280;30388;52.038;-1.478;2023-01-30T01:30:17;65364.24;;;6.44;100.00
44675;BME280;30388;52.038;-1.478;2023-01-30T01:32:45;65416.29;;;6.87;100.00
44675;BME280;30388;52.038;-1.478;2023-01-30T01:35:12;65426.11;;;7.00;100.00
44675;BME280;30388;52.038;-1.478;2023-01-30T01:37:39;65438.85;;;7.16;100.00
44675;BME280;30388;52.038;-1.478;2023-01-30T01:40:09;65366.25;;;6.46;100.00
44675;BME280;30388;52.038;-1.478;2023-01-30T01:42:41;65433.45;;;7.09;100.00
44675;BME280;30388;52.038;-1.478;2023-01-30T01:45:15;65391.23;;;6.56;100.00
44675;BME280;30388;52.038;-1.478;2023-01-30T01:47:47;65370.45;;;6.78;100.00
44675;BME280;30388;52.038;-1.478;2023-01-30T01:50:20;65410.56;;;6.80;100.00
44675;BME280;30388;52.038;-1.478;2023-01-30T01:52:51;65350.79;;;6.27;100.00
44675;BME280;30388;52.038;-1.478;2023-01-30T01:55:22;65387.37;;;6.73;100.00
44675;BME280;30388;52.038;-1.478;2023-01-30T01:57:54;65421.30;;;6.95;100.00
44675;BME280;30388;52.038;-1.478;2023-01-30T02:00:22;65435.51;;;7.12;100.00
44675;BME280;30388;52.038;-1.478;2023-01-30T02:02:53;65442.23;;;7.21;100.00
44675;BME280;30388;52.038;-1.478;2023-01-30T02:05:24;65468.45;;;7.05;100.00
44675;BME280;30388;52.038;-1.478;2023-01-30T02:07:59;65431.85;;;7.07;100.00
44675;BME280;30388;52.038;-1.478;2023-01-30T02:10:32;65376.70;;;6.38;100.00
44675;BME280;30388;52.038;-1.478;2023-01-30T02:13:03;65362.86;;;6.20;100.00
44675;BME280;30388;52.038;-1.478;2023-01-30T02:15:30;65357.50;;;6.35;100.00
44675;BME280;30388;52.038;-1.478;2023-01-30T02:17:58;65409.96;;;6.80;100.00
44675;BME280;30388;52.038;-1.478;2023-01-30T02:20:35;65394.16;;;6.60;100.00
44675;BME280;30388;52.038;-1.478;2023-01-30T02:23:42;65334.36;;;6.05;100.00
44675;BME280;30388;52.038;-1.478;2023-01-30T02:26:40;65396.62;;;6.84;100.00
44675;BME280;30388;52.038;-1.478;2023-01-30T02:29:29;65379.88;;;6.90;100.00
44675;BME280;30388;52.038;-1.478;2023-01-30T02:32:08;65310.52;;;6.03;100.00
44675;BME280;30388;52.038;-1.478;2023-01-30T02:34:47;65348.90;;;6.51;100.00
44675;BME280;30388;52.038;-1.478;2023-01-30T02:37:27;65408.24;;;6.77;100.00
44675;BME280;30388;52.038;-1.478;2023-01-30T02:40:12;65443.24;;;7.22;100.00
44675;BME280;30388;52.038;-1.478;2023-01-30T02:42:46;65438.89;;;6.94;100.00
44675;BME280;30388;52.038;-1.478;2023-01-30T02:45:23;65414.49;;;7.08;100.00
44675;BME280;30388;52.038;-1.478;2023-01-30T02:47:59;65305.21;;;5.96;100.00
44675;BME280;30388;52.038;-1.478;2023-01-30T02:50:33;65348.10;;;6.01;100.00
44675;BME280;30388;52.038;-1.478;2023-01-30T02:53:03;65327.16;;;5.97;100.00
44675;BME280;30388;52.038;-1.478;2023-01-30T02:55:32;65369.34;;;6.51;100.00
44675;BME280;30388;52.038;-1.478;2023-01-30T02:58:00;65428.15;;;7.03;100.00
44675;BME280;30388;52.038;-1.478;2023-01-30T03:00:43;65516.97;;;7.67;100.00
44675;BME280;30388;52.038;-1.478;2023-01-30T03:03:27;65378.73;;;6.62;100.00
44675;BME280;30388;52.038;-1.478;2023-01-30T03:06:11;65430.91;;;7.06;100.00
44675;BME280;30388;52.038;-1.478;2023-01-30T03:08:51;65388.32;;;6.53;100.00
44675;BME280;30388;52.038;-1.478;2023-01-30T03:11:28;65424.86;;;6.98;100.00
44675;BME280;30388;52.038;-1.478;2023-01-30T03:14:05;65431.16;;;7.07;100.00
44675;BME280;30388;52.038;-1.478;2023-01-30T03:16:37;65380.22;;;6.41;100.00
44675;BME280;30388;52.038;-1.478;2023-01-30T03:19:09;65495.31;;;7.39;100.00
44675;BME280;30388;52.038;-1.478;2023-01-30T03:21:40;65313.18;;;6.06;100.00
44675;BME280;30388;52.038;-1.478;2023-01-30T03:24:07;65348.56;;;6.24;100.00
44675;BME280;30388;52.038;-1.478;2023-01-30T03:26:36;65351.42;;;6.27;100.00
44675;BME280;30388;52.038;-1.478;2023-01-30T03:29:06;65331.19;;;6.29;100.00
44675;BME280;30388;52.038;-1.478;2023-01-30T03:31:34;65388.93;;;6.76;100.00
44675;BME280;30388;52.038;-1.478;2023-01-30T03:34:01;65278.58;;;5.63;100.00
44675;BME280;30388;52.038;-1.478;2023-01-30T03:36:28;65246.49;;;5.43;100.00
44675;BME280;30388;52.038;-1.478;2023-01-30T03:38:55;65258.06;;;5.35;100.00
44675;BME280;30388;52.038;-1.478;2023-01-30T03:41:23;65330.02;;;6.01;100.00
44675;BME280;30388;52.038;-1.478;2023-01-30T03:43:50;65345.55;;;6.47;100.00
44675;BME280;30388;52.038;-1.478;2023-01-30T03:46:17;65333.38;;;5.82;100.00
44675;BME280;30388;52.038;-1.478;2023-01-30T03:48:44;65263.57;;;5.43;100.00
44675;BME280;30388;52.038;-1.478;2023-01-30T03:51:11;65235.13;;;5.07;100.00
44675;BME280;30388;52.038;-1.478;2023-01-30T03:53:39;65204.54;;;5.18;100.00
44675;BME280;30388;52.038;-1.478;2023-01-30T03:56:06;65261.58;;;5.89;100.00
44675;BME280;30388;52.038;-1.478;2023-01-30T03:58:33;65192.60;;;5.24;100.00
44675;BME280;30388;52.038;-1.478;2023-01-30T04:01:00;65235.50;;;5.55;100.00
44675;BME280;30388;52.038;-1.478;2023-01-30T04:03:29;65229.92;;;5.49;100.00
44675;BME280;30388;52.038;-1.478;2023-01-30T04:05:56;65225.67;;;5.44;100.00
44675;BME280;30388;52.038;-1.478;2023-01-30T04:08:23;65262.40;;;5.41;100.00
44675;BME280;30388;52.038;-1.478;2023-01-30T04:10:50;65207.34;;;5.21;100.00
44675;BME280;30388;52.038;-1.478;2023-01-30T04:13:17;65273.24;;;5.55;100.00
44675;BME280;30388;52.038;-1.478;2023-01-30T04:15:44;65238.70;;;5.60;100.00
44675;BME280;30388;52.038;-1.478;2023-01-30T04:18:11;65221.04;;;4.88;100.00
44675;BME280;30388;52.038;-1.478;2023-01-30T04:20:38;65295.00;;;5.83;100.00
44675;BME280;30388;52.038;-1.478;2023-01-30T04:23:06;65317.85;;;6.12;100.00
44675;BME280;30388;52.038;-1.478;2023-01-30T04:25:33;65186.51;;;4.94;100.00
44675;BME280;30388;52.038;-1.478;2023-01-30T04:28:01;65321.24;;;6.16;100.00
44675;BME280;30388;52.038;-1.478;2023-01-30T04:30:28;65215.50;;;4.82;100.00
44675;BME280;30388;52.038;-1.478;2023-01-30T04:32:56;65184.91;;;4.91;100.00
44675;BME280;30388;52.038;-1.478;2023-01-30T04:35:23;65238.78;;;5.60;100.00
44675;BME280;30388;52.038;-1.478;2023-01-30T04:37:50;65227.37;;;5.45;100.00
44675;BME280;30388;52.038;-1.478;2023-01-30T04:40:18;65212.70;;;5.00;100.00
44675;BME280;30388;52.038;-1.478;2023-01-30T04:42:45;65195.65;;;5.05;100.00
44675;BME280;30388;52.038;-1.478;2023-01-30T04:45:12;65172.11;;;4.98;100.00
44675;BME280;30388;52.038;-1.478;2023-01-30T04:47:39;65177.24;;;4.81;100.00
44675;BME280;30388;52.038;-1.478;2023-01-30T04:50:08;65097.59;;;4.02;100.00
44675;BME280;30388;52.038;-1.478;2023-01-30T04:52:36;65091.64;;;4.18;100.00
44675;BME280;30388;52.038;-1.478;2023-01-30T04:55:03;65137.54;;;4.32;100.00
44675;BME280;30388;52.038;-1.478;2023-01-30T04:57:31;65128.46;;;4.20;100.00
44675;BME280;30388;52.038;-1.478;2023-01-30T04:59:58;65151.86;;;4.50;100.00
44675;BME280;30388;52.038;-1.478;2023-01-30T05:02:25;65163.19;;;4.37;100.00
44675;BME280;30388;52.038;-1.478;2023-01-30T05:04:53;65151.97;;;4.23;100.00
44675;BME280;30388;52.038;-1.478;2023-01-30T05:07:20;65150.46;;;4.47;100.00
44675;BME280;30388;52.038;-1.478;2023-01-30T05:09:48;65161.21;;;4.62;100.00
44675;BME280;30388;52.038;-1.478;2023-01-30T05:12:15;65145.10;;;4.42;100.00
44675;BME280;30388;52.038;-1.478;2023-01-30T05:14:42;65149.39;;;4.46;100.00
44675;BME280;30388;52.038;-1.478;2023-01-30T05:17:09;65153.54;;;4.52;100.00
44675;BME280;30388;52.038;-1.478;2023-01-30T05:19:36;65213.42;;;4.79;100.00
44675;BME280;30388;52.038;-1.478;2023-01-30T05:22:03;65263.10;;;5.43;100.00
44675;BME280;30388;52.038;-1.478;2023-01-30T05:24:30;65266.94;;;5.47;100.00
44675;BME280;30388;52.038;-1.478;2023-01-30T05:26:57;65259.37;;;5.37;100.00
44675;BME280;30388;52.038;-1.478;2023-01-30T05:29:24;65276.88;;;5.11;100.00
44675;BME280;30388;52.038;-1.478;2023-01-30T05:31:51;65194.38;;;4.56;100.00
44675;BME280;30388;52.038;-1.478;2023-01-30T05:34:19;65178.31;;;4.57;100.00
44675;BME280;30388;52.038;-1.478;2023-01-30T05:36:46;65131.38;;;4.24;100.00
44675;BME280;30388;52.038;-1.478;2023-01-30T05:39:13;65156.90;;;4.56;100.00
44675;BME280;30388;52.038;-1.478;2023-01-30T05:41:40;65109.57;;;3.96;100.00
44675;BME280;30388;52.038;-1.478;2023-01-30T05:44:08;65118.37;;;4.07;100.00
44675;BME280;30388;52.038;-1.478;2023-01-30T05:46:34;65116.38;;;4.05;100.00
44675;BME280;30388;52.038;-1.478;2023-01-30T05:49:02;65106.83;;;3.93;100.00
44675;BME280;30388;52.038;-1.478;2023-01-30T05:51:29;65099.94;;;3.83;100.00
44675;BME280;30388;52.038;-1.478;2023-01-30T05:53:58;65104.20;;;3.89;100.00
44675;BME280;30388;52.038;-1.478;2023-01-30T05:56:25;65097.71;;;3.81;100.00
44675;BME280;30388;52.038;-1.478;2023-01-30T05:58:54;65092.64;;;3.75;100.00
44675;BME280;30388;52.038;-1.478;2023-01-30T06:01:22;65125.02;;;4.16;100.00
44675;BME280;30388;52.038;-1.478;2023-01-30T06:03:50;65179.46;;;4.85;100.00
44675;BME280;30388;52.038;-1.478;2023-01-30T06:06:23;65220.50;;;5.10;100.00
44675;BME280;30388;52.038;-1.478;2023-01-30T06:08:52;65104.09;;;3.89;100.00
44675;BME280;30388;52.038;-1.478;2023-01-30T06:11:20;65176.95;;;4.82;100.00
44675;BME280;30388;52.038;-1.478;2023-01-30T06:13:47;65120.70;;;4.11;100.00
44675;BME280;30388;52.038;-1.478;2023-01-30T06:16:17;65111.08;;;3.98;100.00
44675;BME280;30388;52.038;-1.478;2023-01-30T06:18:45;65091.43;;;3.74;100.00
44675;BME280;30388;52.038;-1.478;2023-01-30T06:21:13;65125.61;;;4.16;100.00
44675;BME280;30388;52.038;-1.478;2023-01-30T06:23:40;65148.53;;;4.19;100.00
44675;BME280;30388;52.038;-1.478;2023-01-30T06:26:08;65072.18;;;3.48;100.00
44675;BME280;30388;52.038;-1.478;2023-01-30T06:28:36;65049.24;;;3.41;100.00
44675;BME280;30388;52.038;-1.478;2023-01-30T06:31:05;65044.92;;;3.58;100.00
44675;BME280;30388;52.038;-1.478;2023-01-30T06:33:32;65037.56;;;3.49;100.00
44675;BME280;30388;52.038;-1.478;2023-01-30T06:35:59;65001.41;;;3.03;100.00
44675;BME280;30388;52.038;-1.478;2023-01-30T06:38:26;65065.06;;;3.84;100.00
44675;BME280;30388;52.038;-1.478;2023-01-30T06:40:54;65016.78;;;3.23;100.00
44675;BME280;30388;52.038;-1.478;2023-01-30T06:43:21;65039.17;;;3.51;100.00
44675;BME280;30388;52.038;-1.478;2023-01-30T06:45:48;65074.05;;;3.95;100.00
44675;BME280;30388;52.038;-1.478;2023-01-30T06:48:16;65157.97;;;4.57;100.00
44675;BME280;30388;52.038;-1.478;2023-01-30T06:50:45;65083.03;;;3.62;100.00
44675;BME280;30388;52.038;-1.478;2023-01-30T06:53:12;65119.10;;;4.06;100.00
44675;BME280;30388;52.038;-1.478;2023-01-30T06:55:40;65134.71;;;4.28;100.00
44675;BME280;30388;52.038;-1.478;2023-01-30T06:58:09;65092.59;;;4.19;100.00
44675;BME280;30388;52.038;-1.478;2023-01-30T07:00:38;65064.44;;;3.83;100.00
44675;BME280;30388;52.038;-1.478;2023-01-30T07:03:05;65091.61;;;3.95;100.00
44675;BME280;30388;52.038;-1.478;2023-01-30T07:05:36;65044.21;;;3.57;100.00
44675;BME280;30388;52.038;-1.478;2023-01-30T07:08:03;64979.81;;;2.76;100.00
44675;BME280;30388;52.038;-1.478;2023-01-30T07:10:31;65042.22;;;3.55;100.00
44675;BME280;30388;52.038;-1.478;2023-01-30T07:12:59;65011.89;;;3.16;100.00
44675;BME280;30388;52.038;-1.478;2023-01-30T07:15:26;64963.80;;;2.81;100.00
44675;BME280;30388;52.038;-1.478;2023-01-30T07:17:54;64969.91;;;3.12;100.00
44675;BME280;30388;52.038;-1.478;2023-01-30T07:20:21;65112.32;;;3.99;100.00
44675;BME280;30388;52.038;-1.478;2023-01-30T07:22:49;65067.20;;;3.87;100.00
44675;BME280;30388;52.038;-1.478;2023-01-30T07:25:18;65092.70;;;3.74;100.00
44675;BME280;30388;52.038;-1.478;2023-01-30T07:27:50;65040.84;;;3.09;100.00
44675;BME280;30388;52.038;-1.478;2023-01-30T07:30:17;65014.94;;;3.20;100.00
44675;BME280;30388;52.038;-1.478;2023-01-30T07:32:48;65106.40;;;3.92;100.00
44675;BME280;30388;52.038;-1.478;2023-01-30T07:35:17;65178.41;;;4.83;100.00
44675;BME280;30388;52.038;-1.478;2023-01-30T07:37:45;65098.07;;;3.56;100.00
44675;BME280;30388;52.038;-1.478;2023-01-30T07:40:12;65151.09;;;3.99;100.00
44675;BME280;30388;52.038;-1.478;2023-01-30T07:42:40;65129.69;;;3.72;100.00
44675;BME280;30388;52.038;-1.478;2023-01-30T07:45:09;65116.09;;;4.04;100.00
44675;BME280;30388;52.038;-1.478;2023-01-30T07:47:36;65110.22;;;3.97;100.00
44675;BME280;30388;52.038;-1.478;2023-01-30T07:50:05;65124.17;;;4.15;100.00
44675;BME280;30388;52.038;-1.478;2023-01-30T07:52:32;65178.78;;;4.36;100.00
44675;BME280;30388;52.038;-1.478;2023-01-30T07:55:00;65277.33;;;5.34;100.00
44675;BME280;30388;52.038;-1.478;2023-01-30T07:57:29;65298.84;;;5.87;100.00
44675;BME280;30388;52.038;-1.478;2023-01-30T07:59:56;65118.76;;;3.81;100.00
44675;BME280;30388;52.038;-1.478;2023-01-30T08:02:23;65181.76;;;4.61;100.00
44675;BME280;30388;52.038;-1.478;2023-01-30T08:04:51;65025.57;;;3.33;100.00
44675;BME280;30388;52.038;-1.478;2023-01-30T08:07:18;65067.23;;;3.87;100.00
44675;BME280;30388;52.038;-1.478;2023-01-30T08:09:46;65026.82;;;3.35;100.00
44675;BME280;30388;52.038;-1.478;2023-01-30T08:12:13;65098.04;;;4.04;100.00
44675;BME280;30388;52.038;-1.478;2023-01-30T08:14:41;65025.41;;;3.33;100.00
44675;BME280;30388;52.038;-1.478;2023-01-30T08:17:08;65012.48;;;3.17;100.00
44675;BME280;30388;52.038;-1.478;2023-01-30T08:19:36;65074.14;;;3.95;100.00
44675;BME280;30388;52.038;-1.478;2023-01-30T08:22:03;65060.96;;;3.79;100.00
44675;BME280;30388;52.038;-1.478;2023-01-30T08:24:30;65079.62;;;4.03;100.00
44675;BME280;30388;52.038;-1.478;2023-01-30T08:26:57;65084.12;;;3.86;100.00
44675;BME280;30388;52.038;-1.478;2023-01-30T08:29:25;65060.09;;;3.77;100.00
44675;BME280;30388;52.038;-1.478;2023-01-30T08:31:56;65154.91;;;4.54;100.00
44675;BME280;30388;52.038;-1.478;2023-01-30T08:34:23;65071.87;;;3.69;100.00
44675;BME280;30388;52.038;-1.478;2023-01-30T08:36:50;65024.10;;;3.32;100.00
44675;BME280;30388;52.038;-1.478;2023-01-30T08:39:18;65047.19;;;3.62;100.00
44675;BME280;30388;52.038;-1.478;2023-01-30T08:41:45;64996.43;;;3.45;100.00
44675;BME280;30388;52.038;-1.478;2023-01-30T08:44:13;65010.27;;;3.14;100.00
44675;BME280;30388;52.038;-1.478;2023-01-30T08:46:40;65042.07;;;3.54;100.00
44675;BME280;30388;52.038;-1.478;2023-01-30T08:49:09;65077.78;;;4.00;100.00
44675;BME280;30388;52.038;-1.478;2023-01-30T08:51:37;65063.88;;;3.82;100.00
44675;BME280;30388;52.038;-1.478;2023-01-30T08:54:04;65045.64;;;3.59;100.00
44675;BME280;30388;52.038;-1.478;2023-01-30T08:56:32;64973.40;;;3.17;100.00
44675;BME280;30388;52.038;-1.478;2023-01-30T08:58:59;65061.18;;;3.80;100.00
44675;BME280;30388;52.038;-1.478;2023-01-30T09:01:27;65018.46;;;3.25;100.00
44675;BME280;30388;52.038;-1.478;2023-01-30T09:03:54;64997.63;;;3.48;100.00
44675;BME280;30388;52.038;-1.478;2023-01-30T09:06:22;64981.15;;;3.26;100.00
44675;BME280;30388;52.038;-1.478;2023-01-30T09:08:49;64945.12;;;2.81;100.00
44675;BME280;30388;52.038;-1.478;2023-01-30T09:11:16;64912.30;;;2.88;100.00
44675;BME280;30388;52.038;-1.478;2023-01-30T09:13:44;64982.62;;;3.28;100.00
44675;BME280;30388;52.038;-1.478;2023-01-30T09:16:12;64962.65;;;3.02;100.00
44675;BME280;30388;52.038;-1.478;2023-01-30T09:18:39;64996.48;;;3.45;100.00
44675;BME280;30388;52.038;-1.478;2023-01-30T09:21:08;64970.99;;;3.13;100.00
44675;BME280;30388;52.038;-1.478;2023-01-30T09:23:36;65064.19;;;3.83;100.00
44675;BME280;30388;52.038;-1.478;2023-01-30T09:26:04;65140.75;;;4.36;100.00
44675;BME280;30388;52.038;-1.478;2023-01-30T09:28:32;65079.41;;;3.80;100.00
44675;BME280;30388;52.038;-1.478;2023-01-30T09:31:00;65145.67;;;4.87;100.00
44675;BME280;30388;52.038;-1.478;2023-01-30T09:33:27;65115.50;;;4.49;100.00
44675;BME280;30388;52.038;-1.478;2023-01-30T09:35:54;65104.20;;;4.12;100.00
44675;BME280;30388;52.038;-1.478;2023-01-30T09:38:22;65101.01;;;4.07;100.00
44675;BME280;30388;52.038;-1.478;2023-01-30T09:40:59;65071.42;;;3.70;100.00
44675;BME280;30388;52.038;-1.478;2023-01-30T09:43:41;65073.53;;;3.95;100.00
44675;BME280;30388;52.038;-1.478;2023-01-30T09:46:20;65082.49;;;4.06;100.00
44675;BME280;30388;52.038;-1.478;2023-01-30T09:48:56;65051.17;;;3.66;100.00
44675;BME280;30388;52.038;-1.478;2023-01-30T09:51:37;65048.16;;;3.63;100.00
44675;BME280;30388;52.038;-1.478;2023-01-30T09:54:15;65050.83;;;3.92;100.00
44675;BME280;30388;52.038;-1.478;2023-01-30T09:56:45;65088.27;;;4.13;100.00
44675;BME280;30388;52.038;-1.478;2023-01-30T09:59:20;65089.98;;;4.16;100.00
44675;BME280;30388;52.038;-1.478;2023-01-30T10:01:56;65133.99;;;4.27;100.00
44675;BME280;30388;52.038;-1.478;2023-01-30T10:04:31;65166.91;;;4.69;100.00
44675;BME280;30388;52.038;-1.478;2023-01-30T10:07:06;65141.20;;;4.58;100.00
44675;BME280;30388;52.038;-1.478;2023-01-30T10:09:44;65124.67;;;4.60;100.00
44675;BME280;30388;52.038;-1.478;2023-01-30T10:12:25;65114.77;;;4.48;100.00
44675;BME280;30388;52.038;-1.478;2023-01-30T10:15:12;65136.14;;;4.30;100.00
44675;BME280;30388;52.038;-1.478;2023-01-30T10:17:52;65093.47;;;3.97;100.00
44675;BME280;30388;52.038;-1.478;2023-01-30T10:20:30;65035.66;;;3.47;100.00
44675;BME280;30388;52.038;-1.478;2023-01-30T10:23:17;65093.77;;;4.20;100.00
44675;BME280;30388;52.038;-1.478;2023-01-30T10:25:51;65078.98;;;4.01;100.00
44675;BME280;30388;52.038;-1.478;2023-01-30T10:28:23;65130.16;;;4.67;100.00
44675;BME280;30388;52.038;-1.478;2023-01-30T10:30:58;65114.00;;;4.24;100.00
44675;BME280;30388;52.038;-1.478;2023-01-30T10:33:31;65158.56;;;4.81;100.00
44675;BME280;30388;52.038;-1.478;2023-01-30T10:36:03;65157.15;;;4.78;100.00
44675;BME280;30388;52.038;-1.478;2023-01-30T10:38:38;65175.79;;;4.81;100.00
44675;BME280;30388;52.038;-1.478;2023-01-30T10:41:16;65151.70;;;4.50;100.00
44675;BME280;30388;52.038;-1.478;2023-01-30T10:43:49;65133.53;;;4.71;100.00
44675;BME280;30388;52.038;-1.478;2023-01-30T10:46:30;65254.85;;;5.54;100.00
44675;BME280;30388;52.038;-1.478;2023-01-30T10:49:02;65118.01;;;4.51;100.00
44675;BME280;30388;52.038;-1.478;2023-01-30T10:51:41;65151.32;;;4.93;100.00
44675;BME280;30388;52.038;-1.478;2023-01-30T10:54:15;65147.85;;;4.67;100.00
44675;BME280;30388;52.038;-1.478;2023-01-30T10:56:48;65189.55;;;5.20;100.00
44675;BME280;30388;52.038;-1.478;2023-01-30T10:59:22;65205.40;;;5.40;100.00
44675;BME280;30388;52.038;-1.478;2023-01-30T11:01:58;65259.69;;;5.60;100.00
44675;BME280;30388;52.038;-1.478;2023-01-30T11:04:30;65264.37;;;5.44;100.00
44675;BME280;30388;52.038;-1.478;2023-01-30T11:07:00;65283.32;;;5.69;100.00
44675;BME280;30388;52.038;-1.478;2023-01-30T11:09:45;65157.23;;;4.79;100.00
44675;BME280;30388;52.038;-1.478;2023-01-30T11:12:12;65215.09;;;5.30;100.00
44675;BME280;30388;52.038;-1.478;2023-01-30T11:14:57;65207.20;;;5.21;100.00
44675;BME280;30388;52.038;-1.478;2023-01-30T11:17:30;65190.06;;;4.98;100.00
44675;BME280;30388;52.038;-1.478;2023-01-30T11:20:03;65171.20;;;5.19;100.00
44675;BME280;30388;52.038;-1.478;2023-01-30T11:22:32;65265.27;;;5.46;100.00
44675;BME280;30388;52.038;-1.478;2023-01-30T11:25:03;65197.77;;;5.08;100.00
44675;BME280;30388;52.038;-1.478;2023-01-30T11:27:33;65218.62;;;5.34;100.00
44675;BME280;30388;52.038;-1.478;2023-01-30T11:30:05;65156.95;;;4.79;100.00
44675;BME280;30388;52.038;-1.478;2023-01-30T11:32:33;65244.64;;;5.68;100.00
44675;BME280;30388;52.038;-1.478;2023-01-30T11:35:10;65258.22;;;5.59;100.00
44675;BME280;30388;52.038;-1.478;2023-01-30T11:37:44;65239.69;;;5.13;100.00
44675;BME280;30388;52.038;-1.478;2023-01-30T11:40:22;65223.64;;;5.41;100.00
44675;BME280;30388;52.038;-1.478;2023-01-30T11:42:51;65211.88;;;5.26;100.00
44675;BME280;30388;52.038;-1.478;2023-01-30T11:45:22;65308.51;;;6.01;100.00
44675;BME280;30388;52.038;-1.478;2023-01-30T11:47:53;65317.28;;;5.84;100.00
44675;BME280;30388;52.038;-1.478;2023-01-30T11:50:29;65269.39;;;5.51;100.00
44675;BME280;30388;52.038;-1.478;2023-01-30T11:53:01;65361.97;;;6.42;100.00
44675;BME280;30388;52.038;-1.478;2023-01-30T11:55:32;65468.84;;;7.55;100.00
44675;BME280;30388;52.038;-1.478;2023-01-30T11:58:05;65372.46;;;6.33;100.00
44675;BME280;30388;52.038;-1.478;2023-01-30T12:00:38;65415.44;;;6.87;100.00
44675;BME280;30388;52.038;-1.478;2023-01-30T12:03:11;65324.65;;;5.72;100.00
44675;BME280;30388;52.038;-1.478;2023-01-30T12:05:40;65309.11;;;5.74;100.00
44675;BME280;30388;52.038;-1.478;2023-01-30T12:08:21;65180.27;;;4.86;100.00
44675;BME280;30388;52.038;-1.478;2023-01-30T12:10:50;65237.09;;;5.10;100.00
44675;BME280;30388;52.038;-1.478;2023-01-30T12:13:27;65199.32;;;4.84;100.00
44675;BME280;30388;52.038;-1.478;2023-01-30T12:16:10;65216.52;;;5.33;100.00
44675;BME280;30388;52.038;-1.478;2023-01-30T12:18:47;65251.17;;;5.28;100.00
44675;BME280;30388;52.038;-1.478;2023-01-30T12:21:30;65278.10;;;5.62;100.00
44675;BME280;30388;52.038;-1.478;2023-01-30T12:24:10;65238.76;;;5.11;100.00
44675;BME280;30388;52.038;-1.478;2023-01-30T12:26:44;65305.43;;;6.45;100.00
44675;BME280;30388;52.038;-1.478;2023-01-30T12:29:22;65258.96;;;5.38;100.00
44675;BME280;30388;52.038;-1.478;2023-01-30T12:32:01;65253.65;;;5.31;100.00
44675;BME280;30388;52.038;-1.478;2023-01-30T12:34:31;65239.12;;;5.12;100.00
44675;BME280;30388;52.038;-1.478;2023-01-30T12:37:07;65389.38;;;6.54;100.00
44675;BME280;30388;52.038;-1.478;2023-01-30T12:39:50;65173.51;;;4.78;100.00
44675;BME280;30388;52.038;-1.478;2023-01-30T12:42:38;65236.93;;;5.32;100.00
44675;BME280;30388;52.038;-1.478;2023-01-30T12:45:20;65209.08;;;4.97;100.00
44675;BME280;30388;52.038;-1.478;2023-01-30T12:48:31;65264.30;;;5.44;100.00
44675;BME280;30388;52.038;-1.478;2023-01-30T12:51:08;65318.31;;;6.13;100.00
44675;BME280;30388;52.038;-1.478;2023-01-30T12:53:43;65212.75;;;5.28;100.00
44675;BME280;30388;52.038;-1.478;2023-01-30T12:56:26;65195.43;;;5.06;100.00
44675;BME280;30388;52.038;-1.478;2023-01-30T12:59:01;65235.69;;;5.30;100.00
44675;BME280;30388;52.038;-1.478;2023-01-30T13:01:40;65183.55;;;4.90;100.00
44675;BME280;30388;52.038;-1.478;2023-01-30T13:04:16;65216.97;;;5.34;100.00
44675;BME280;30388;52.038;-1.478;2023-01-30T13:06:59;65323.82;;;6.17;100.00
44675;BME280;30388;52.038;-1.478;2023-01-30T13:09:39;65252.43;;;5.51;100.00